Date,TemperatureHighF,TemperatureAvgF,TemperatureLowF,DewpointHighF,DewpointAvgF,DewpointLowF,HumidityHigh,HumidityAvg,HumidityLow,PressureMaxIn,PressureMinIn,WindSpeedMaxMPH,WindSpeedAvgMPH,GustSpeedMaxMPH,PrecipitationSumIn
2013-1-1,32.2,21.2,17.4,4.5,-0.4,-3.7,43,38,31,29.00,28.91,0,0,0,0.00
2013-1-2,26.1,22.3,16.7,9.9,4.6,-2.2,53,46,40,29.00,28.91,0,0,0,0.00
2013-1-3,27.7,24.2,19.9,11.0,6.9,-1.2,54,47,39,29.00,28.85,0,0,0,0.00
2013-1-4,31.5,26.3,22.5,16.2,9.6,5.8,72,49,41,29.00,28.85,0,0,0,0.00
2013-1-5,36.9,28.4,16.3,27.2,16.1,6.1,80,61,35,29.06,28.76,17,4,17,0.00
2013-1-6,34.5,32.1,26.8,30.3,23.5,13.2,88,71,54,29.12,28.67,14,2,14,0.04
2013-1-7,35.4,30.6,26.4,15.7,11.0,5.3,57,44,31,29.12,28.91,25,6,25,0.00
2013-1-8,40.6,32.4,26.2,19.6,14.4,10.0,62,48,36,29.03,28.91,15,6,15,0.00
2013-1-9,46.0,37.0,27.1,22.5,14.1,7.8,56,39,29,29.26,28.79,28,6,28,0.00
2013-1-10,43.5,32.3,21.7,22.9,12.6,6.7,71,46,30,29.35,28.91,18,4,18,0.20
2013-1-11,50.0,42.4,34.0,47.3,37.5,23.1,92,83,63,28.91,28.56,23,8,23,0.55
2013-1-12,56.8,46.4,34.3,42.1,29.1,12.9,86,53,28,28.79,28.59,26,7,26,0.00
2013-1-13,34.3,29.6,21.0,29.5,22.8,7.8,87,76,57,28.91,28.67,9,1,9,0.16
2013-1-14,23.2,17.9,14.4,8.6,4.6,2.0,61,55,44,29.23,28.91,0,0,0,0.16
2013-1-15,34.2,23.3,13.3,13.3,6.8,1.8,67,50,32,29.23,28.97,0,0,0,0.16
2013-1-16,37.0,27.6,19.6,22.0,11.9,6.0,70,52,31,28.97,28.59,25,4,25,0.16
2013-1-17,31.1,23.8,15.6,20.4,5.7,-4.9,64,46,35,29.15,28.82,15,4,15,0.16
2013-1-18,37.4,23.7,7.2,15.1,3.6,-10.2,50,42,33,29.21,28.70,26,7,26,0.16
2013-1-19,41.9,39.2,34.3,23.3,18.0,7.6,51,42,31,28.70,28.41,26,9,26,0.00
2013-1-20,33.4,16.1,9.5,7.5,-4.8,-12.6,49,39,33,29.03,28.44,31,6,31,0.00
2013-1-21,16.7,8.7,-0.4,-7.0,-13.3,-21.7,35,35,34,28.97,28.82,17,6,17,0.00
2013-1-22,14.0,0.9,-7.1,-9.6,-20.6,-28.0,35,34,34,29.09,28.97,13,3,13,0.00
2013-1-23,23.5,9.1,-7.4,-0.9,-11.5,-28.3,47,38,34,29.09,28.88,16,4,16,0.00
2013-1-24,24.4,9.4,-0.6,-1.8,-11.2,-16.4,46,38,31,29.41,29.00,11,2,11,0.00
2013-1-25,21.2,16.0,10.9,6.5,-3.6,-13.1,58,42,32,29.26,28.79,15,5,15,0.00
2013-1-26,35.2,23.1,18.1,9.2,5.2,2.5,60,47,32,29.23,28.88,9,2,9,0.00
2013-1-27,30.2,25.1,20.3,19.7,7.2,2.0,66,47,33,29.23,28.88,17,7,17,0.00
2013-1-28,39.9,34.4,29.5,36.4,26.4,19.9,88,73,57,28.88,28.67,15,4,15,0.16
2013-1-29,54.9,43.9,29.8,54.0,41.0,24.0,97,89,75,28.82,28.26,18,6,18,2.28
2013-1-30,51.1,37.3,22.6,50.1,35.6,15.9,97,93,75,28.26,27.96,16,4,16,0.51
2013-1-31,26.6,18.6,12.6,15.6,7.9,1.7,74,62,55,28.73,28.20,0,0,0,0.00
2013-2-1,19.0,13.8,10.9,5.8,1.4,-2.4,61,57,53,29.03,28.73,0,0,0,0.00
2013-2-2,21.0,11.6,0.7,2.7,-4.5,-19.0,60,48,37,28.97,28.82,0,0,0,0.00
2013-2-3,22.5,11.7,3.0,2.0,-8.4,-16.8,45,39,38,28.85,28.70,0,0,0,0.00
2013-2-7,28.8,28.5,27.5,20.9,20.3,18.7,73,71,69,28.79,28.73,13,8,13,0.00
2013-2-8,34.9,26.4,12.9,20.9,9.4,-1.2,78,50,31,29.21,28.73,20,7,20,0.00
2013-2-9,31.1,17.9,6.4,5.9,0.1,-4.8,59,46,33,29.23,29.03,11,3,11,0.00
2013-2-10,39.7,26.7,14.2,35.9,12.8,-0.4,86,56,41,29.03,28.41,20,9,23,0.16
2013-2-11,42.3,34.8,28.4,38.7,22.2,11.2,88,61,44,28.70,28.35,25,10,25,0.04
2013-2-12,31.1,27.2,24.4,12.4,9.2,6.3,51,46,41,28.88,28.70,13,5,13,0.00
2013-2-13,40.3,30.4,22.3,21.1,14.8,9.5,71,53,35,28.76,28.59,13,5,13,0.00
2013-2-14,39.7,32.7,24.4,28.7,23.1,13.4,82,68,42,28.73,28.47,19,8,19,0.04
2013-2-15,32.2,23.1,14.7,13.5,4.7,-2.1,63,45,32,28.97,28.73,13,4,13,0.00
2013-2-16,31.3,17.3,6.3,9.2,1.0,-9.0,64,49,32,28.94,28.85,12,2,12,0.00
2013-2-17,27.0,13.2,-0.6,1.4,-6.2,-15.1,49,42,32,29.03,28.94,10,3,10,0.00
2013-2-18,43.3,32.0,16.5,34.4,10.9,-4.7,75,42,31,28.97,28.29,25,10,25,0.08
2013-2-19,41.2,26.1,14.2,35.8,17.0,2.9,88,69,56,28.79,28.20,24,2,30,0.08
2013-2-20,25.2,18.6,13.1,8.8,3.4,1.3,60,51,41,29.12,28.79,0,0,0,0.00
2013-2-21,30.9,21.8,16.7,6.5,2.4,-2.5,50,43,33,29.21,29.03,0,0,0,0.00
2013-2-22,31.1,24.8,18.0,24.8,12.0,2.0,77,58,44,29.03,28.67,23,6,23,0.00
2013-2-23,36.7,29.6,25.5,22.5,15.5,9.3,72,56,37,28.73,28.64,17,6,17,0.00
2013-2-24,44.6,30.3,19.9,21.6,13.7,7.5,68,51,31,29.00,28.70,10,2,10,0.00
2013-2-25,47.1,28.0,14.2,19.5,10.0,2.9,70,49,29,29.06,28.94,10,1,10,0.00
2013-2-26,37.4,30.1,24.3,31.5,13.9,5.7,98,54,32,28.97,28.41,30,12,30,0.04
2013-2-27,36.1,33.3,32.0,32.1,29.1,24.3,98,85,63,28.50,28.35,20,7,20,0.04
2013-2-28,38.8,32.6,27.7,27.9,20.9,9.1,81,63,44,28.85,28.50,17,8,17,0.00
2013-3-1,32.0,25.0,17.1,9.1,3.6,-1.6,45,39,32,29.00,28.85,15,7,15,0.00
2013-3-2,34.3,21.1,9.3,7.6,-0.2,-7.3,47,39,31,29.00,28.91,12,4,12,0.00
2013-3-3,38.3,23.3,7.9,9.6,0.4,-10.4,47,37,30,28.94,28.85,14,3,14,0.00
2013-3-4,34.3,20.0,7.2,8.1,-1.2,-9.9,50,39,31,29.00,28.88,9,2,9,0.00
2013-3-5,36.9,25.4,16.2,14.7,4.0,-4.4,64,40,32,28.97,28.73,21,9,21,0.00
2013-3-6,49.3,34.6,25.2,18.2,13.7,10.2,69,43,28,29.06,28.82,15,5,15,0.00
2013-3-7,43.3,31.7,21.2,15.5,8.5,-0.8,52,38,29,29.23,29.06,17,4,17,0.00
2013-3-8,43.7,28.6,14.2,13.5,5.6,-1.4,55,38,29,29.32,29.21,10,2,10,0.00
2013-3-9,41.9,33.5,23.5,17.5,9.6,3.2,47,37,30,29.21,28.79,20,7,20,0.00
2013-3-10,46.8,41.7,35.6,37.6,29.5,16.9,82,63,38,28.79,28.56,13,6,15,0.31
2013-3-11,52.3,42.9,33.3,43.6,36.4,28.6,92,78,55,28.56,28.32,24,6,24,0.16
2013-3-12,36.3,30.6,23.5,29.1,18.8,11.3,85,62,40,28.73,28.50,17,2,17,0.00
2013-3-13,34.2,25.4,19.2,15.6,7.3,-3.6,72,47,32,29.09,28.70,22,5,22,0.00
2013-3-14,44.6,28.9,12.9,14.8,6.4,-2.4,62,39,29,29.15,28.97,12,2,12,0.00
2013-3-15,41.4,34.4,28.8,24.2,19.0,9.6,70,54,39,29.09,28.85,15,2,15,0.00
2013-3-16,42.6,28.7,21.9,24.2,13.3,3.6,68,53,31,30.27,28.91,10,1,10,0.04
2013-3-17,34.0,25.1,19.0,11.3,3.2,-2.9,58,39,31,31.01,29.35,0,0,0,0.00
2013-3-18,33.1,26.4,18.5,23.7,10.1,0.2,71,50,38,31.01,31.01,0,0,0,0.00
2013-3-19,33.1,23.8,19.0,23.2,6.2,-1.7,70,47,35,31.01,31.01,0,0,0,0.00
2013-3-20,33.6,19.8,11.3,6.3,-1.8,-7.8,45,38,31,31.01,31.01,0,0,0,0.00
2013-3-21,36.0,24.3,12.7,13.2,5.3,-6.3,59,45,32,31.01,31.01,0,0,0,0.00
2013-3-22,43.7,30.9,23.5,14.0,6.9,1.6,43,36,29,31.01,31.01,11,2,11,0.00
2013-3-23,47.3,32.5,27.1,16.7,8.1,4.2,43,36,29,31.01,31.01,9,1,9,0.00
2013-3-24,37.8,30.1,22.1,10.5,7.6,4.1,54,39,31,31.01,31.01,19,5,19,0.00
2013-3-25,40.8,33.1,27.1,11.6,8.5,4.4,43,35,30,31.01,31.01,17,7,17,0.00
2013-3-26,47.5,34.7,27.9,25.9,15.5,6.8,71,46,30,31.01,31.01,17,4,17,0.00
2013-3-27,51.8,35.7,24.6,30.9,17.4,2.5,88,53,28,31.01,31.01,17,3,17,0.00
2013-3-28,55.8,36.9,23.2,21.8,12.1,1.2,61,37,26,31.01,31.01,12,2,12,0.00
2013-3-29,58.8,38.2,22.8,23.9,11.3,0.1,59,34,26,31.01,23.59,15,2,15,0.00
2013-3-30,55.6,40.6,23.0,21.8,13.0,2.2,52,33,26,23.92,17.72,16,4,16,0.00
2013-3-31,46.8,41.3,31.1,32.8,23.3,13.9,71,50,28,17.72,17.72,17,5,17,0.04
2013-4-1,37.2,28.4,21.6,16.4,4.4,-3.1,54,36,30,17.72,17.72,17,6,17,0.00
2013-4-2,43.5,29.5,16.7,13.4,5.1,-2.3,54,36,29,17.72,17.72,15,4,16,0.00
2013-4-3,46.6,31.8,15.1,15.2,5.3,-4.1,49,32,28,17.72,17.72,11,2,12,0.00
2013-4-4,53.2,32.1,22.8,19.8,5.3,-1.3,40,32,27,17.72,17.72,18,6,18,0.00
2013-4-8,64.4,44.1,40.8,35.8,34.6,27.5,78,71,33,30.19,28.64,10,3,10,0.00
2013-4-9,43.3,40.7,38.1,40.6,36.7,33.7,91,86,77,30.24,30.10,18,6,18,1.06
2013-4-10,43.2,38.7,35.8,36.9,31.4,15.4,91,76,43,30.24,30.07,23,10,23,1.06
2013-4-11,36.3,33.9,32.5,30.7,27.7,12.6,90,80,38,30.19,29.86,34,14,34,1.06
2013-4-12,40.3,34.8,32.2,35.3,32.4,29.7,98,91,78,29.95,29.77,22,2,22,1.06
2013-4-13,42.1,35.0,32.7,33.1,25.4,10.1,97,72,32,30.16,29.95,20,4,20,1.06
2013-4-14,46.6,36.7,25.5,27.3,22.0,15.7,80,56,37,30.27,30.04,20,6,20,0.04
2013-4-15,63.1,50.8,39.7,47.4,32.6,19.6,84,52,33,30.13,30.01,23,7,23,0.43
2013-4-16,57.0,46.2,36.7,42.1,26.3,12.0,87,51,27,30.45,30.13,15,4,15,0.35
2013-4-17,54.5,42.3,35.8,34.8,22.1,12.0,80,47,28,30.54,30.19,26,9,26,0.39
2013-4-18,60.4,51.3,41.2,56.2,46.6,34.5,92,84,64,30.19,29.65,26,8,26,2.28
2013-4-19,59.7,39.3,34.9,48.3,21.6,12.0,77,50,33,29.86,29.62,29,11,29,0.12
2013-4-20,41.0,33.8,23.0,14.7,7.2,-0.1,43,32,30,30.63,30.33,15,4,15,0.12
2013-4-21,52.5,37.2,20.7,19.2,10.5,1.1,46,33,27,30.75,30.57,16,5,16,0.00
2013-4-22,65.8,49.7,33.4,28.9,18.2,7.2,40,29,25,30.60,30.33,16,7,16,0.12
2013-4-23,63.5,48.7,35.4,41.9,25.8,14.3,75,44,26,30.33,30.04,15,7,15,0.43
2013-4-24,50.4,38.1,32.4,28.9,20.3,7.2,78,52,28,30.27,30.10,16,5,16,0.12
2013-4-25,53.6,41.4,34.3,30.9,17.8,8.2,75,40,28,30.51,30.19,20,6,20,0.12
2013-4-26,64.0,49.6,32.0,27.4,19.6,12.2,45,31,25,30.60,30.45,25,8,25,0.12
2013-4-27,72.7,59.2,43.9,33.8,25.4,17.6,39,28,24,30.48,30.30,17,6,17,0.12
2013-4-28,69.3,57.6,46.6,35.6,25.4,17.5,50,29,25,30.30,30.04,15,4,15,0.12
2013-4-29,77.2,61.6,48.9,41.8,34.9,27.6,71,40,23,30.13,30.07,13,2,13,0.12
2013-4-30,76.6,65.1,55.4,47.3,39.4,34.9,71,41,24,30.19,30.07,24,10,24,0.31
2013-5-1,88.2,74.7,61.2,43.0,38.1,29.3,39,28,21,30.39,30.19,17,7,17,0.12
2013-5-2,86.4,69.0,55.2,45.2,36.5,29.5,58,32,21,30.42,30.30,14,4,14,0.12
2013-5-3,80.1,65.6,49.3,42.4,35.5,27.8,69,36,22,30.33,30.22,13,6,13,0.00
2013-5-4,78.1,65.7,55.8,37.0,28.6,22.0,27,25,23,30.30,30.24,20,6,20,0.12
2013-5-5,77.5,64.5,51.1,36.5,27.7,18.1,27,25,23,30.30,30.22,20,5,20,0.12
2013-5-6,80.4,67.4,49.5,37.8,29.8,17.9,31,25,22,30.27,30.19,15,5,15,0.12
2013-5-7,81.9,66.8,49.5,39.0,29.1,17.4,28,24,22,30.27,30.22,15,3,15,0.12
2013-5-8,88.9,68.6,52.3,43.8,31.8,22.6,37,26,21,30.27,30.19,10,2,10,0.12
2013-5-9,83.3,64.6,49.6,40.8,33.8,25.9,66,34,21,30.19,30.10,13,2,13,0.12
2013-5-10,61.9,48.5,43.3,46.3,37.7,25.4,83,68,26,30.13,30.04,18,8,18,0.63
2013-5-11,55.2,44.3,34.0,41.7,31.6,19.3,80,62,38,30.13,29.95,20,5,20,0.20
2013-5-12,47.5,39.3,29.3,29.9,16.6,5.9,80,41,28,30.33,30.10,15,4,15,0.12
2013-5-13,60.4,43.6,24.4,25.3,17.1,8.4,67,37,26,30.36,30.27,13,2,13,0.12
2013-5-14,77.7,60.2,42.3,37.0,25.2,12.3,34,26,23,30.27,29.86,21,6,21,0.12
2013-5-15,82.6,69.4,55.0,39.5,33.2,22.5,36,27,22,30.04,29.77,15,3,15,0.12
2013-5-16,88.2,67.6,48.2,43.2,31.2,21.3,38,26,21,30.24,30.04,13,3,13,0.12
2013-5-17,62.6,56.5,49.1,27.1,22.8,17.4,29,27,25,30.39,30.24,15,7,15,0.12
2013-5-18,81.3,66.6,51.8,39.3,31.2,22.5,39,27,22,30.36,30.22,13,6,13,0.12
2013-5-19,88.9,73.4,57.0,43.9,34.0,23.4,28,24,21,30.24,30.07,14,5,14,0.12
2013-5-20,89.1,74.8,66.0,57.2,41.7,33.5,58,32,21,30.10,29.98,22,7,22,0.12
2013-5-21,81.7,71.4,61.9,54.6,42.9,36.2,75,38,24,30.01,29.92,15,6,21,0.24
2013-5-22,69.4,64.6,59.7,61.4,53.9,43.1,88,69,43,29.95,29.86,17,2,17,0.83
2013-5-23,59.7,51.4,38.1,54.9,42.6,19.8,90,74,37,30.45,29.92,13,6,13,1.34
2013-5-24,67.5,50.0,31.6,31.6,25.2,19.2,82,42,25,30.57,30.45,13,3,13,0.12
2013-5-25,70.2,54.8,37.9,31.1,25.4,18.1,69,34,24,30.60,30.48,10,3,10,0.12
2013-5-26,73.2,58.5,43.2,34.1,25.8,19.1,48,29,24,30.57,30.42,12,4,12,0.12
2013-5-27,65.1,54.9,47.7,41.5,24.9,17.0,71,32,25,30.45,30.19,17,7,17,0.12
2013-5-28,73.0,60.0,50.7,63.6,50.0,37.4,88,71,40,30.19,29.98,15,6,15,0.98
2013-5-29,79.7,67.4,60.4,63.5,53.5,42.2,87,64,31,30.22,30.01,13,4,13,0.20
2013-5-30,84.9,76.5,66.6,53.7,45.2,39.9,62,35,23,30.22,30.10,26,9,26,0.12
2013-5-31,83.1,74.9,64.6,55.7,44.6,39.0,73,37,22,30.16,30.04,20,9,20,0.16
2013-6-1,71.6,68.7,65.8,53.8,45.9,41.8,65,45,34,30.04,29.92,17,8,17,0.12
2013-6-3,65.7,61.8,49.5,29.9,27.7,22.1,37,27,25,30.33,30.24,9,2,9,0.00
2013-6-4,82.0,62.6,46.2,39.5,28.9,21.4,44,29,22,30.42,30.33,7,3,7,0.00
2013-6-5,72.0,61.9,56.1,36.7,27.1,22.6,47,27,24,30.39,30.24,13,6,13,0.00
2013-6-6,72.0,61.4,53.2,39.8,30.1,26.0,51,31,24,30.24,30.13,13,6,13,0.00
2013-6-7,78.8,64.5,47.5,37.8,31.0,26.2,61,30,23,30.19,30.10,15,6,15,0.00
2013-6-8,79.7,67.3,49.5,38.5,33.8,27.0,61,30,23,30.27,30.16,9,2,9,0.00
2013-6-9,82.9,74.6,62.8,40.3,36.3,30.7,35,25,22,30.30,30.16,15,6,15,0.00
2013-6-10,70.3,65.4,60.1,55.0,46.0,30.2,80,52,26,30.16,30.01,12,4,12,0.04
2013-6-11,87.6,70.4,57.4,56.0,46.8,37.1,88,51,22,30.16,30.07,15,2,15,0.00
2013-6-12,78.3,68.9,59.0,61.5,48.6,37.1,89,53,28,30.16,29.92,11,1,11,0.39
2013-6-13,83.7,68.3,60.3,62.5,45.4,32.3,93,50,22,30.22,29.89,15,5,15,0.55
2013-6-14,85.8,70.4,51.4,42.6,37.6,25.8,69,33,22,30.33,30.22,9,2,9,0.00
2013-6-15,83.1,65.6,51.3,42.1,35.8,31.1,59,35,22,30.27,30.10,19,2,19,0.00
2013-6-16,86.0,71.4,61.0,59.6,48.0,36.5,86,50,23,30.13,30.01,12,4,12,0.51
2013-6-17,89.2,74.0,55.4,52.3,42.5,36.7,72,36,21,30.19,30.10,8,1,8,0.00
2013-6-18,74.3,63.6,53.1,52.3,34.8,22.6,69,38,23,30.33,30.19,15,6,15,0.04
2013-6-19,77.5,62.6,44.8,36.7,29.2,20.0,55,29,23,30.39,30.33,11,2,11,0.00
2013-6-20,90.1,71.1,51.4,45.0,35.7,27.3,48,29,21,30.42,30.33,8,1,8,0.00
2013-6-21,88.2,76.8,63.0,44.0,38.7,32.2,35,26,21,30.39,30.22,17,10,17,0.00
2013-6-22,83.1,69.2,68.0,47.1,46.4,40.4,47,44,22,30.33,30.22,17,7,17,0.00
2013-6-23,90.7,79.1,68.0,49.7,45.4,38.9,52,33,21,30.27,30.16,15,5,15,0.00
2013-6-24,83.8,81.7,81.3,41.0,39.3,38.9,22,22,22,30.27,30.13,11,6,11,0.04
2013-6-25,83.1,72.7,65.5,59.8,52.6,40.4,80,54,22,30.22,30.07,6,1,6,0.16
2013-6-26,74.5,69.7,68.9,65.6,57.9,49.3,86,66,46,30.10,29.98,9,2,9,1.34
2013-6-27,89.6,73.9,65.3,65.2,55.3,43.7,89,63,21,30.01,29.92,8,2,8,0.00
2013-6-28,87.1,81.3,66.9,43.7,42.4,38.1,36,26,22,29.92,29.80,9,2,9,0.00
2013-6-29,72.3,66.8,60.8,56.3,47.8,39.9,83,56,31,30.01,29.83,0,0,0,0.00
2013-6-30,72.3,65.2,61.9,40.9,40.6,40.0,46,41,31,30.24,30.01,8,3,8,0.00
2013-7-1,61.9,61.9,61.9,40.9,40.9,40.9,46,46,46,30.33,30.24,6,3,6,0.00
2013-7-2,61.9,61.9,61.9,40.9,40.9,40.9,46,46,46,30.33,30.27,5,3,5,0.08
2013-7-3,61.9,61.9,61.9,40.9,40.9,40.9,46,46,46,30.33,30.24,8,3,8,0.79
2013-7-4,61.9,61.9,61.9,40.9,40.9,40.9,46,46,46,30.36,30.27,8,1,8,0.00
2013-7-5,61.9,61.9,61.9,40.9,40.9,40.9,46,46,46,30.33,30.30,4,0,4,0.00
2013-7-7,76.6,75.8,75.7,38.2,37.5,37.5,25,25,25,30.22,28.88,0,0,0,0.00
2013-7-8,75.7,72.3,68.0,63.7,55.9,37.5,78,61,25,30.25,30.19,0,0,0,0.20
2013-7-9,92.7,72.8,66.6,63.9,58.8,44.5,85,66,21,30.25,30.10,4,0,4,0.04
2013-7-10,85.5,75.0,57.9,67.4,50.3,30.9,86,48,22,30.22,30.04,11,3,11,0.00
2013-7-11,73.8,56.7,53.8,49.0,45.9,32.8,83,71,23,30.31,30.22,6,2,6,0.00
2013-7-12,86.9,71.6,55.9,44.8,40.6,35.6,63,35,21,30.40,30.31,5,5,5,0.00
2013-7-13,85.3,85.3,85.3,42.2,42.2,42.2,22,22,22,30.42,30.37,5,2,5,0.00
2013-7-14,85.3,85.3,85.3,42.2,42.2,42.2,22,22,22,30.48,30.42,5,0,5,0.00
2013-7-15,85.3,85.3,85.3,42.2,42.2,42.2,22,22,22,30.51,30.45,6,0,6,0.00
2013-7-16,85.3,85.3,85.3,42.2,42.2,42.2,22,22,22,30.54,30.45,12,2,12,0.00
2013-7-17,85.3,84.5,79.3,42.2,41.7,38.4,23,22,22,30.51,29.09,11,1,11,0.00
2013-7-18,80.2,79.8,79.3,51.6,45.9,38.4,37,31,23,30.40,30.22,13,2,13,0.00
2013-8-23,81.7,64.5,58.1,39.2,35.6,32.1,48,35,22,30.07,30.04,0,0,0,0.00
2013-8-24,87.4,67.4,54.3,43.7,39.1,32.9,65,38,21,30.16,30.07,0,0,0,0.00
2013-8-25,91.2,75.0,61.0,45.7,38.9,34.2,41,28,21,30.13,30.01,0,0,0,0.00
2013-8-26,90.0,76.2,69.3,50.4,44.7,38.6,44,33,22,30.01,29.86,0,0,0,0.00
2013-8-27,90.5,77.6,68.9,67.9,56.4,45.9,86,52,24,29.86,29.68,0,0,0,0.91
2013-8-28,85.8,75.4,67.8,69.6,59.6,44.1,91,63,26,29.92,29.68,0,0,0,0.47
2013-8-29,92.1,76.7,64.8,63.7,51.3,39.9,84,47,21,29.98,29.86,0,0,0,0.00
2013-8-30,90.9,75.5,65.7,62.0,52.1,44.3,71,48,22,29.89,29.65,0,0,0,0.04
2013-8-31,83.5,70.1,61.9,59.8,48.8,36.6,83,51,24,29.77,29.68,0,0,0,0.00
2013-9-1,88.3,71.8,61.0,57.7,49.5,42.0,80,49,23,29.74,29.59,0,0,0,0.00
2013-9-2,75.0,64.7,57.6,60.9,41.8,30.6,80,47,26,29.83,29.65,0,0,0,0.00
2013-9-3,81.0,64.8,49.5,41.7,36.5,28.6,72,39,23,29.92,29.83,0,0,0,0.00
2013-9-9,75.4,74.4,73.9,53.4,52.2,50.1,48,46,42,29.71,29.71,0,0,0,0.00
2013-9-10,92.1,82.0,73.6,54.2,46.0,37.5,48,30,20,29.88,28.82,4,1,4,0.00
2013-9-11,88.7,75.3,64.6,57.8,45.0,37.0,78,37,22,29.94,29.85,11,4,11,0.00
2013-9-12,82.4,66.5,52.5,59.2,42.2,24.6,84,47,23,29.94,29.82,0,0,0,0.00
2013-9-13,63.9,53.3,40.8,32.1,25.5,19.6,53,35,25,30.03,29.94,9,3,9,0.00
2013-9-14,73.2,54.5,37.6,34.3,28.8,21.6,69,40,24,30.06,29.94,4,0,4,0.00
2013-9-15,61.0,56.6,53.1,48.0,33.5,23.2,79,44,28,30.06,29.91,0,0,0,0.04
2013-9-16,63.5,52.9,43.3,48.0,31.4,21.6,79,46,27,30.26,30.06,8,3,8,0.00
2013-9-17,69.8,52.3,38.7,31.3,28.0,24.2,68,42,24,30.29,30.09,4,0,4,0.00
2013-9-18,79.3,62.3,48.4,38.8,32.6,26.7,49,34,23,30.09,29.88,10,3,10,0.00
2013-9-19,76.3,67.8,61.5,62.6,48.8,30.3,84,53,28,29.91,29.73,9,3,9,1.02
2013-9-20,69.6,67.7,63.3,63.9,54.8,47.8,84,64,47,29.73,29.64,6,6,6,0.20
2013-9-21,63.3,57.6,54.7,49.5,40.7,27.5,76,55,31,29.82,29.61,6,3,6,0.00
2013-9-22,54.7,49.4,38.7,31.0,26.5,21.8,67,42,30,29.97,29.82,9,2,9,0.00
2013-9-23,64.9,49.6,36.5,33.2,28.3,22.9,79,48,25,30.06,29.97,8,1,8,0.00
2013-9-24,68.4,54.4,41.0,31.9,28.7,25.4,65,39,25,30.03,29.88,8,2,8,0.00
2013-9-25,71.1,57.3,45.1,38.2,32.7,28.8,75,43,24,29.91,29.88,6,1,9,0.00
2013-9-26,74.7,58.0,44.4,43.0,34.4,27.3,82,45,24,30.03,29.91,5,0,5,0.00
2013-9-27,60.3,49.6,46.2,37.1,34.5,27.3,69,58,34,30.11,30.03,8,1,8,0.00
2013-9-28,72.9,64.3,52.5,43.2,35.6,29.4,65,36,25,30.06,29.82,4,4,4,0.00
2013-9-29,72.9,61.5,47.1,54.0,38.8,27.7,83,47,25,29.91,29.79,4,4,4,0.47
2013-9-30,65.8,49.4,45.5,38.6,35.2,26.7,74,61,26,29.91,29.79,6,0,6,0.00
2013-10-1,69.4,62.3,52.2,49.5,41.1,32.2,71,46,35,29.82,29.79,13,6,13,0.00
2013-10-2,73.8,62.2,48.7,51.8,39.4,27.5,84,48,24,30.00,29.82,4,0,4,0.00
2013-10-3,76.3,64.8,53.8,56.1,35.6,23.0,70,34,28,29.94,29.79,5,3,5,0.31
2013-10-4,66.7,65.4,63.9,60.5,59.5,54.1,85,81,69,29.91,29.76,4,3,4,0.43
2013-10-5,68.0,64.4,59.9,64.3,53.7,48.7,88,70,50,29.91,29.70,5,2,5,0.51
2013-10-6,68.2,59.9,46.4,64.5,53.3,41.4,88,79,67,29.70,29.55,5,4,5,0.39
2013-10-7,62.4,51.9,46.6,48.4,39.4,26.7,87,66,29,29.97,29.55,5,1,5,0.39
2013-10-8,48.7,45.7,45.0,31.4,30.7,29.6,57,55,49,30.11,29.97,0,0,0,0.39
2013-10-9,45.0,45.0,45.0,30.7,30.7,30.7,57,57,57,30.17,30.09,0,0,0,0.39
2013-10-10,45.0,45.0,45.0,30.7,30.7,30.7,57,57,57,30.09,30.06,3,0,3,0.39
2013-10-15,70.9,60.5,59.2,53.4,51.4,43.0,79,73,42,29.89,29.86,0,0,0,0.04
2013-10-16,60.3,51.2,47.5,53.6,40.9,34.5,83,68,51,29.98,29.86,11,2,11,0.16
2013-10-17,49.1,46.4,37.4,44.2,41.0,33.1,87,82,75,29.98,29.86,6,0,6,0.43
2013-10-18,62.4,47.2,35.8,44.7,32.2,24.0,92,61,28,29.98,29.92,11,2,11,0.00
2013-10-19,56.5,44.1,36.7,34.0,26.8,18.1,81,52,27,29.98,29.83,13,1,13,0.08
2013-10-20,57.9,46.6,35.6,44.0,31.9,20.8,91,61,27,29.98,29.83,8,2,10,0.20
2013-10-21,51.1,45.4,36.3,44.6,26.6,9.5,82,50,32,29.98,29.83,10,2,10,0.08
2013-10-22,48.2,39.3,29.5,17.9,13.9,8.1,61,36,28,29.98,29.95,10,1,10,0.00
2013-10-23,34.3,29.9,27.5,24.2,19.2,11.5,68,64,41,30.03,29.95,11,1,11,0.00
2013-10-24,47.8,34.6,27.0,21.7,17.8,11.9,71,52,31,30.27,30.01,10,0,10,0.00
2013-10-25,52.7,37.7,24.4,27.3,17.5,11.2,76,48,28,30.39,30.06,17,3,17,0.00
2013-10-26,56.1,45.2,31.6,24.2,18.1,10.2,48,34,29,30.09,29.83,26,6,26,0.08
2013-10-27,55.4,39.9,27.5,22.0,15.8,11.2,55,38,27,30.12,30.03,13,2,13,0.00
2013-10-28,44.6,40.6,35.1,21.0,15.2,10.7,50,36,30,30.48,30.09,15,3,15,0.00
2013-10-29,43.0,37.4,33.8,20.2,14.9,10.5,54,40,31,30.51,30.30,9,2,9,0.00
2013-10-30,60.4,46.1,32.7,40.3,26.2,18.5,64,47,32,30.30,29.95,11,2,11,0.00
2013-10-31,60.8,58.3,54.5,57.1,52.2,40.8,91,80,57,29.95,29.21,12,4,12,1.14
2013-11-1,54.5,46.2,43.7,49.8,40.9,38.0,86,82,77,29.77,29.24,21,3,21,0.43
2013-11-2,50.0,42.5,36.3,43.4,32.9,21.7,91,71,37,30.21,29.77,10,1,10,0.20
2013-11-3,48.4,39.9,30.6,30.6,21.8,15.0,75,50,30,30.45,30.21,10,2,10,0.08
2013-11-4,52.3,42.7,34.9,20.6,17.8,15.1,54,38,27,30.48,30.27,17,8,17,0.00
2013-11-5,62.8,52.8,47.7,29.5,25.0,17.8,44,34,27,30.39,30.15,12,5,12,0.00
2013-11-6,54.9,48.4,37.2,49.6,39.7,24.5,86,74,33,30.15,29.80,18,7,18,0.87
2013-11-7,47.7,36.8,28.4,33.6,19.4,6.8,86,53,29,30.21,30.12,8,1,8,0.04
2013-11-8,50.5,36.7,25.3,18.7,12.1,8.0,54,37,28,30.36,30.15,11,2,11,0.00
2013-11-9,53.6,45.1,38.1,22.0,16.6,11.4,34,31,29,30.15,29.86,22,7,22,0.00
2013-11-10,50.2,40.0,31.5,18.0,12.5,7.1,40,32,28,30.33,30.01,17,4,17,0.00
2013-11-11,42.3,33.1,23.5,28.4,15.8,6.2,71,50,34,30.45,30.12,23,5,23,0.24
2013-11-12,36.3,25.5,17.4,13.0,6.5,-1.5,60,45,31,30.63,30.45,14,3,14,0.00
2013-11-13,43.7,31.2,19.0,13.5,7.7,2.0,49,37,29,30.57,30.18,20,6,20,0.00
2013-11-14,49.3,40.8,35.1,17.6,12.5,8.7,38,31,28,30.18,30.01,23,8,23,0.00
2013-11-15,52.7,43.5,38.1,20.4,14.4,10.9,34,31,28,30.09,30.01,15,6,15,0.00
2013-11-16,55.9,46.9,36.1,47.4,25.0,10.8,79,43,33,30.09,29.74,28,8,28,0.43
2013-11-17,62.1,54.9,42.1,54.6,49.1,35.4,86,81,65,29.74,29.24,28,10,28,1.38
2013-11-18,42.1,36.0,33.1,35.4,15.0,7.1,77,43,33,30.24,29.59,20,6,20,0.35
2013-11-19,44.6,33.5,23.7,13.9,7.2,2.5,47,33,29,30.42,30.24,9,2,9,0.35
2013-11-20,43.5,34.8,27.1,13.4,8.3,3.8,41,33,29,30.45,30.27,19,6,19,0.35
2013-11-21,47.5,41.7,36.0,36.3,25.9,10.2,76,54,31,30.30,30.24,13,3,13,0.35
2013-11-22,43.3,33.9,22.3,37.0,23.7,8.3,79,66,49,30.48,30.24,19,4,19,0.35
2013-11-23,27.7,21.3,12.7,14.2,4.0,-4.1,67,47,34,30.63,30.36,25,6,25,0.35
2013-11-24,25.7,18.9,10.4,2.0,-2.5,-6.3,46,38,32,30.66,30.36,20,4,20,0.35
2013-11-25,32.2,26.6,19.4,17.5,8.0,-4.4,58,45,33,30.36,30.06,26,9,26,0.35
2013-11-26,33.3,29.5,22.8,19.2,14.4,4.8,61,53,42,30.12,30.03,15,6,15,0.35
2013-11-27,32.5,20.8,12.4,8.6,0.5,-6.0,61,41,31,30.27,30.09,20,5,20,0.35
2013-11-28,26.2,21.3,14.4,10.6,5.3,-2.4,59,50,42,30.48,30.27,12,3,12,0.35
2013-11-29,34.3,21.8,12.2,12.8,4.8,1.0,61,48,34,30.68,30.48,4,0,4,0.35
2013-11-30,43.0,33.4,22.3,16.6,10.5,2.7,44,38,31,30.54,30.12,13,4,17,0.35
2013-12-1,42.1,36.0,32.2,25.2,15.2,6.8,69,43,31,30.15,30.09,11,2,11,0.35
2013-12-2,44.2,33.2,27.7,17.7,12.4,5.0,57,43,30,30.09,29.95,10,2,10,0.35
2013-12-3,32.7,31.3,27.3,28.1,17.8,5.6,83,59,38,29.98,29.86,15,7,15,0.35
2013-12-4,54.7,39.6,32.7,51.9,36.0,28.1,96,87,59,29.92,29.62,8,8,8,0.35
2013-12-5,52.5,34.5,22.8,38.9,12.9,-0.9,60,41,31,30.21,29.62,8,8,8,0.35
2013-12-6,23.4,20.4,18.3,0.0,-2.9,-5.0,40,35,33,30.45,30.21,8,8,8,0.35
2013-12-7,23.2,15.0,6.1,-1.6,-7.4,-16.4,44,36,33,30.66,30.45,8,8,8,0.35
2013-12-8,20.7,15.2,5.7,5.3,-5.7,-16.6,53,39,33,30.63,30.03,8,8,8,0.35
2013-12-9,26.8,21.1,10.2,15.9,3.4,-12.1,64,46,35,30.15,29.92,8,8,8,0.35
2013-12-10,21.2,13.8,7.2,4.8,-4.4,-14.9,57,44,35,30.21,29.95,8,8,8,0.35
2013-12-11,25.5,13.0,4.3,2.1,-6.1,-17.9,55,42,32,30.48,30.21,8,8,8,0.35
2013-12-12,21.6,14.5,5.0,3.0,-5.3,-17.2,52,41,34,30.48,30.21,8,8,8,0.35
2013-12-13,29.5,22.5,18.0,3.8,0.9,-3.3,46,39,32,30.33,30.18,8,8,8,0.35
2013-12-14,20.3,16.4,11.5,4.0,-0.5,-6.4,54,47,39,30.33,29.95,8,8,8,0.35
2013-12-15,21.0,16.9,12.0,6.0,-0.9,-7.2,55,45,35,30.09,29.86,8,8,8,0.35
2013-12-16,25.2,15.0,8.6,0.1,-6.4,-10.3,45,37,33,30.21,30.03,8,8,8,0.35
2013-12-17,31.1,23.1,14.4,14.0,6.9,-3.6,60,50,42,30.03,29.89,8,8,8,0.35
2013-12-18,30.9,25.2,21.4,10.2,3.3,-1.0,56,39,32,30.15,29.86,8,8,8,0.35
2013-12-19,38.7,31.1,26.8,20.6,15.1,1.5,67,52,33,30.03,29.86,8,8,8,0.00
2013-12-21,27.7,26.7,26.1,18.9,17.0,16.1,70,66,63,29.95,29.80,0,0,0,0.00
2013-12-22,29.5,26.5,22.6,20.4,16.4,12.3,71,65,56,30.06,29.68,0,0,0,0.00
2013-12-23,34.9,22.4,16.2,15.1,8.5,1.1,64,55,39,30.33,30.06,0,0,0,0.04
2013-12-24,27.9,14.5,7.0,4.8,-1.2,-7.2,59,49,36,30.51,30.33,0,0,0,0.04
2013-12-25,23.0,18.7,11.3,11.6,5.2,-1.7,61,55,46,30.48,30.09,0,0,0,0.04
2013-12-26,29.7,23.3,19.6,12.8,8.4,1.0,63,53,35,30.27,30.06,0,0,0,0.04
2013-12-27,33.8,26.5,20.3,24.5,14.8,8.3,69,61,55,30.33,30.06,0,0,0,0.00
2013-12-28,44.2,37.1,29.1,26.8,20.7,15.1,80,53,36,30.12,29.92,0,0,0,0.08
2013-12-29,39.4,28.6,15.4,21.7,9.4,-6.8,62,44,35,30.12,29.80,0,0,0,0.00
2013-12-30,20.7,14.1,9.9,-3.3,-7.2,-10.4,42,37,33,30.30,30.12,0,0,0,0.00
2013-12-31,19.2,12.2,8.6,-3.5,-7.3,-9.8,42,40,35,30.39,30.12,0,0,0,0.00
2014-1-1,14.5,9.3,2.7,-5.0,-11.2,-15.4,42,38,34,30.45,30.33,0,0,0,0.00
2014-1-2,11.5,7.3,-4.4,-11.6,-15.2,-25.6,34,34,34,30.39,30.27,0,0,0,0.00